UAL Aberdeen — PBHZ — position and weather

sailwx.info

Track history (hours):
 
Tides and Currents Weather Stations Pressure Air Temp Water Temp Dewpoint Dewpoint Depression Visibility Wind Speed Wind Dir Waves Ship Positions

UAL Aberdeen

Last reported at 2014-Sep-03 01:31 UTC. Time now 2014-Sep-03 02:28 UTC.
Position N 51°54' E 004°27'.

Length 129 m; beam 17 m.

Type: Cargo ship. MMSI: 244093964.

Date/timePositionNaut miles runAvg speedWind from/ knotsBaromVisibWave heightAir tempDewpointWater temp
2014-Sep-03 01:31N 51°54' E 004°27'0 0.0
2014-Sep-03 00:31N 51°54' E 004°28'0 0.0
2014-Sep-02 23:31N 51°54' E 004°27'0 0.0
2014-Sep-02 22:31N 51°54' E 004°27'0 0.0
2014-Sep-02 21:31N 51°54' E 004°27'0 0.0
2014-Sep-02 20:34N 51°54' E 004°28'0 0.0
2014-Sep-02 19:33N 51°54' E 004°28'0 0.0
2014-Sep-02 18:30N 51°54' E 004°27'0 0.0
2014-Sep-02 17:33N 51°54' E 004°27'0 0.0
2014-Sep-02 16:30N 51°54' E 004°28'0 0.0
2014-Sep-02 15:32N 51°54' E 004°28'0 0.0
2014-Sep-02 14:32N 51°54' E 004°27'0 0.0
2014-Sep-02 13:32N 51°54' E 004°28'0 0.0
2014-Sep-02 12:32N 51°54' E 004°28'0 0.0
2014-Sep-02 11:32N 51°54' E 004°28'0 0.0
2014-Sep-02 10:32N 51°54' E 004°27'2 1.9
2014-Sep-02 09:31N 51°55' E 004°25'0 0.0
2014-Sep-02 08:31N 51°55' E 004°25'0 0.0
2014-Sep-02 07:31N 51°55' E 004°25'0 0.0
2014-Sep-02 06:28N 51°55' E 004°25'0 0.0
2014-Sep-02 05:29N 51°55' E 004°25'0 0.0
2014-Sep-02 04:32N 51°55' E 004°25'0 0.0
2014-Sep-02 03:32N 51°55' E 004°25'0 0.0
2014-Sep-02 02:32N 51°55' E 004°25'0 0.0
2014-Sep-02 01:32N 51°55' E 004°25'0 0.0
2014-Sep-02 00:31N 51°55' E 004°25'0 0.0
2014-Sep-01 23:31N 51°55' E 004°25'0 0.0
2014-Sep-01 22:31N 51°55' E 004°25'0 0.0
2014-Sep-01 21:31N 51°54' E 004°25'0 0.0
2014-Sep-01 20:25N 51°55' E 004°25'0 0.0
2014-Sep-01 19:31N 51°55' E 004°25'0 0.0
2014-Sep-01 18:31N 51°55' E 004°25'0 0.0
2014-Sep-01 17:31N 51°55' E 004°25'0 0.0
2014-Sep-01 16:31N 51°55' E 004°25'0 0.0
2014-Sep-01 15:31N 51°55' E 004°25'0 0.0
2014-Sep-01 14:31N 51°54' E 004°25'0 0.0
2014-Sep-01 13:31N 51°55' E 004°25'0 0.0
2014-Sep-01 12:28N 51°55' E 004°25'0 0.0
2014-Sep-01 11:31N 51°55' E 004°25'0 0.0
2014-Sep-01 10:31N 51°55' E 004°25'0 0.0
2014-Sep-01 09:31N 51°55' E 004°25'0 0.0
2014-Sep-01 08:33N 51°55' E 004°25'5 4.9
2014-Sep-01 07:33N 51°54' E 004°17'1111.1
2014-Sep-01 06:33N 51°60' E 004°01'1211.9
2014-Sep-01 05:33N 51°58' E 003°42'1610.9
2014-Sep-01 04:06N 51°53' E 003°18'711.7
2014-Sep-01 03:33N 51°51' E 003°08'2411.2
2014-Sep-01 01:25N 51°41' E 002°33'1010.8
2014-Sep-01 00:29N 51°34' E 002°22'1123.3
2014-Sep-01 00:00N 51°24' E 002°12'2 5.2 999 / 41020.3 5.4 0.515.113.618.1
2014-Aug-31 23:33N 51°26' E 002°13'1010.4
2014-Aug-31 22:33N 51°17' E 002°06'10 9.7
2014-Aug-31 21:33N 51°11' E 001°54'1010.1
2014-Aug-31 20:33N 51°04' E 001°41'1110.9
2014-Aug-31 19:33N 50°56' E 001°29'1211.6
2014-Aug-31 18:33N 50°45' E 001°23'2311.5
2014-Aug-31 16:33N 50°30' E 000°56'1211.8
2014-Aug-31 15:33N 50°27' E 000°38'1211.9
2014-Aug-31 14:33N 50°24' E 000°20'31411.8
2014-Aug-30 12:00N 47°42' W 006°30'13811.5 270 / 61022.9 5.4 2.520.819.322.3
2014-Aug-30 00:00N 45°48' W 008°24'6611.0 010 / 51022.110.8 2.522.021.320.4
2014-Aug-29 18:00N 44°54' W 009°18'41011.4 999 / 21021.410.8 0.520.313.7
2014-Aug-28 06:00N 38°54' W 013°42'27611.5 340 / 41018.110.8 0.521.917.5
2014-Aug-27 06:00N 34°48' W 016°18'13411.2 340 / 41019.310.8 0.523.219.5
2014-Aug-26 18:00N 32°48' W 017°30'2 2.8 050 / 161018.310.8 1.025.021.0
2014-Aug-26 17:09N 32°48' W 017°33'610.6
2014-Aug-26 16:32N 32°43' W 017°36'1211.3
2014-Aug-26 15:31N 32°32' W 017°42'2411.7
2014-Aug-26 13:29N 32°11' W 017°54'3411.3
2014-Aug-26 10:27N 31°40' W 018°11'1010.8
2014-Aug-26 09:33N 31°31' W 018°16'4613.0
2014-Aug-26 06:00N 30°48' W 018°36'24910.4 030 / 161018.410.8 1.523.317.9
2014-Aug-25 06:00N 27°00' W 020°30'12110.1 040 / 201017.810.8 1.523.920.0
2014-Aug-24 18:00N 25°12' W 021°30'12410.3 050 / 171016.810.8 1.525.422.0
2014-Aug-24 06:00N 23°18' W 022°24'   050 / 151016.210.8 1.024.820.2
Track history (hours):
 
Tides and Currents Weather Stations Pressure Air Temp Water Temp Dewpoint Dewpoint Depression Visibility Wind Speed Wind Dir Waves Ship Positions

UAL Aberdeen

Last reported at 2014-Sep-03 01:31 UTC. Time now 2014-Sep-03 02:28 UTC.
Position N 51°54' E 004°27'.

Length 129 m; beam 17 m.

Type: Cargo ship. MMSI: 244093964.

Date/timePositionNaut miles runAvg speedWind from/ knotsBaromVisibWave heightAir tempDewpointWater temp
2014-Sep-03 01:31N 51°54' E 004°27'0 0.0
2014-Sep-03 00:31N 51°54' E 004°28'0 0.0
2014-Sep-02 23:31N 51°54' E 004°27'0 0.0
2014-Sep-02 22:31N 51°54' E 004°27'0 0.0
2014-Sep-02 21:31N 51°54' E 004°27'0 0.0
2014-Sep-02 20:34N 51°54' E 004°28'0 0.0
2014-Sep-02 19:33N 51°54' E 004°28'0 0.0
2014-Sep-02 18:30N 51°54' E 004°27'0 0.0
2014-Sep-02 17:33N 51°54' E 004°27'0 0.0
2014-Sep-02 16:30N 51°54' E 004°28'0 0.0
2014-Sep-02 15:32N 51°54' E 004°28'0 0.0
2014-Sep-02 14:32N 51°54' E 004°27'0 0.0
2014-Sep-02 13:32N 51°54' E 004°28'0 0.0
2014-Sep-02 12:32N 51°54' E 004°28'0 0.0
2014-Sep-02 11:32N 51°54' E 004°28'0 0.0
2014-Sep-02 10:32N 51°54' E 004°27'2 1.9
2014-Sep-02 09:31N 51°55' E 004°25'0 0.0
2014-Sep-02 08:31N 51°55' E 004°25'0 0.0
2014-Sep-02 07:31N 51°55' E 004°25'0 0.0
2014-Sep-02 06:28N 51°55' E 004°25'0 0.0
2014-Sep-02 05:29N 51°55' E 004°25'0 0.0
2014-Sep-02 04:32N 51°55' E 004°25'0 0.0
2014-Sep-02 03:32N 51°55' E 004°25'0 0.0
2014-Sep-02 02:32N 51°55' E 004°25'0 0.0
2014-Sep-02 01:32N 51°55' E 004°25'0 0.0
2014-Sep-02 00:31N 51°55' E 004°25'0 0.0
2014-Sep-01 23:31N 51°55' E 004°25'0 0.0
2014-Sep-01 22:31N 51°55' E 004°25'0 0.0
2014-Sep-01 21:31N 51°54' E 004°25'0 0.0
2014-Sep-01 20:25N 51°55' E 004°25'0 0.0
2014-Sep-01 19:31N 51°55' E 004°25'0 0.0
2014-Sep-01 18:31N 51°55' E 004°25'0 0.0
2014-Sep-01 17:31N 51°55' E 004°25'0 0.0
2014-Sep-01 16:31N 51°55' E 004°25'0 0.0
2014-Sep-01 15:31N 51°55' E 004°25'0 0.0
2014-Sep-01 14:31N 51°54' E 004°25'0 0.0
2014-Sep-01 13:31N 51°55' E 004°25'0 0.0
2014-Sep-01 12:28N 51°55' E 004°25'0 0.0
2014-Sep-01 11:31N 51°55' E 004°25'0 0.0
2014-Sep-01 10:31N 51°55' E 004°25'0 0.0
2014-Sep-01 09:31N 51°55' E 004°25'0 0.0
2014-Sep-01 08:33N 51°55' E 004°25'5 4.9
2014-Sep-01 07:33N 51°54' E 004°17'1111.1
2014-Sep-01 06:33N 51°60' E 004°01'1211.9
2014-Sep-01 05:33N 51°58' E 003°42'1610.9
2014-Sep-01 04:06N 51°53' E 003°18'711.7
2014-Sep-01 03:33N 51°51' E 003°08'2411.2
2014-Sep-01 01:25N 51°41' E 002°33'1010.8
2014-Sep-01 00:29N 51°34' E 002°22'1123.3
2014-Sep-01 00:00N 51°24' E 002°12'2 5.2 999 / 41020.3 5.4 0.515.113.618.1
2014-Aug-31 23:33N 51°26' E 002°13'1010.4
2014-Aug-31 22:33N 51°17' E 002°06'10 9.7
2014-Aug-31 21:33N 51°11' E 001°54'1010.1
2014-Aug-31 20:33N 51°04' E 001°41'1110.9
2014-Aug-31 19:33N 50°56' E 001°29'1211.6
2014-Aug-31 18:33N 50°45' E 001°23'2311.5
2014-Aug-31 16:33N 50°30' E 000°56'1211.8
2014-Aug-31 15:33N 50°27' E 000°38'1211.9
2014-Aug-31 14:33N 50°24' E 000°20'31411.8
2014-Aug-30 12:00N 47°42' W 006°30'13811.5 270 / 61022.9 5.4 2.520.819.322.3
2014-Aug-30 00:00N 45°48' W 008°24'6611.0 010 / 51022.110.8 2.522.021.320.4
2014-Aug-29 18:00N 44°54' W 009°18'41011.4 999 / 21021.410.8 0.520.313.7
2014-Aug-28 06:00N 38°54' W 013°42'27611.5 340 / 41018.110.8 0.521.917.5
2014-Aug-27 06:00N 34°48' W 016°18'13411.2 340 / 41019.310.8 0.523.219.5
2014-Aug-26 18:00N 32°48' W 017°30'2 2.8 050 / 161018.310.8 1.025.021.0
2014-Aug-26 17:09N 32°48' W 017°33'610.6
2014-Aug-26 16:32N 32°43' W 017°36'1211.3
2014-Aug-26 15:31N 32°32' W 017°42'2411.7
2014-Aug-26 13:29N 32°11' W 017°54'3411.3
2014-Aug-26 10:27N 31°40' W 018°11'1010.8
2014-Aug-26 09:33N 31°31' W 018°16'4613.0
2014-Aug-26 06:00N 30°48' W 018°36'24910.4 030 / 161018.410.8 1.523.317.9
2014-Aug-25 06:00N 27°00' W 020°30'12110.1 040 / 201017.810.8 1.523.920.0
2014-Aug-24 18:00N 25°12' W 021°30'12410.3 050 / 171016.810.8 1.525.422.0
2014-Aug-24 06:00N 23°18' W 022°24'   050 / 151016.210.8 1.024.820.2

Dump ship's entire track history